Time;durP1;ratioP1;P1;durP2;ratioP2;P2;SDS_P1;SDS_P2;PMS_P1;PMS_P2;Temp;Humidity;BMP_temperature;BMP_pressure;BME280_temperature;BME280_humidity;BME280_pressure;Samples;Min_cycle;Max_cycle;Signal;HPM_P1;HPM_P2
2023/11/18 00:00:10;;;;;;;9.70;8.70;;;3.60;91.20;;;2.82;98.64;98706.84;4948466;28;20464;-71
2023/11/18 00:02:38;;;;;;;10.33;8.47;;;3.70;91.80;;;2.64;97.93;98696.13;4946374;28;20552;-70
2023/11/18 00:05:07;;;;;;;11.87;8.83;;;3.80;91.10;;;2.52;98.64;98704.34;4948939;29;20459;-70
2023/11/18 00:07:34;;;;;;;11.70;9.10;;;3.70;91.00;;;2.52;100.00;98712.34;4950854;29;20512;-70
2023/11/18 00:10:04;;;;;;;9.87;8.63;;;3.60;91.30;;;2.62;99.46;98709.63;4949360;28;20583;-70
2023/11/18 00:12:31;;;;;;;11.20;9.00;;;3.60;91.70;;;2.65;99.91;98719.16;4948688;28;20508;-71
2023/11/18 00:14:59;;;;;;;11.40;8.97;;;3.70;92.00;;;2.75;98.35;98725.28;4950490;28;20469;-71
2023/11/18 00:17:26;;;;;;;11.13;8.10;;;3.80;91.90;;;2.71;98.47;98702.56;4951775;28;20449;-71
2023/11/18 00:19:53;;;;;;;13.47;8.93;;;3.80;91.40;;;2.83;98.25;98728.06;4948547;29;20916;-72
2023/11/18 00:22:20;;;;;;;15.03;9.50;;;3.90;91.00;;;2.83;97.33;98714.72;4946268;28;20828;-69
2023/11/18 00:24:48;;;;;;;12.70;9.30;;;3.90;91.00;;;2.83;97.34;98721.88;4950589;28;20609;-70
2023/11/18 00:27:17;;;;;;;11.60;8.27;;;3.90;90.70;;;2.99;97.39;98726.59;4949674;29;20816;-69
2023/11/18 00:29:44;;;;;;;12.10;9.70;;;3.80;90.70;;;3.05;96.05;98725.97;4950114;28;20464;-69
2023/11/18 00:32:11;;;;;;;10.57;9.40;;;3.80;90.90;;;3.03;96.43;98722.63;4949805;28;20547;-69
2023/11/18 00:34:38;;;;;;;12.50;10.60;;;3.70;91.00;;;2.83;97.32;98727.22;4948077;28;20502;-71
2023/11/18 00:37:07;;;;;;;13.93;11.13;;;3.70;91.30;;;2.50;98.17;98714.31;4943782;28;20440;-69
2023/11/18 00:39:34;;;;;;;15.70;11.63;;;3.70;91.00;;;2.84;97.77;98726.22;4950510;28;20555;-70
2023/11/18 00:42:02;;;;;;;14.97;10.77;;;3.60;91.40;;;2.35;99.24;98707.75;4948519;28;20449;-69
2023/11/18 00:44:30;;;;;;;12.70;10.50;;;3.50;91.50;;;2.50;100.00;98722.31;4945627;28;20464;-69
2023/11/18 00:46:57;;;;;;;13.10;9.77;;;3.50;92.20;;;2.49;99.77;98725.94;4947744;28;20452;-69
2023/11/18 00:49:25;;;;;;;12.40;10.37;;;3.50;92.30;;;2.48;99.92;98720.78;4950679;28;20463;-71
2023/11/18 00:51:52;;;;;;;13.83;10.80;;;3.50;92.50;;;2.46;100.00;98722.75;4950364;29;21000;-70
2023/11/18 00:54:20;;;;;;;14.23;10.20;;;3.50;92.60;;;2.44;100.00;98717.56;4944178;28;20862;-70
2023/11/18 00:56:47;;;;;;;12.93;9.70;;;3.50;92.60;;;2.54;100.00;98718.38;4934059;29;20458;-70
2023/11/18 00:59:15;;;;;;;16.17;10.80;;;3.60;92.70;;;2.66;100.00;98696.84;4941223;29;20487;-70
2023/11/18 01:01:43;;;;;;;14.90;11.70;;;3.60;92.80;;;2.96;97.96;98724.22;4946579;28;20468;-71
2023/11/18 01:04:10;;;;;;;14.07;10.20;;;3.70;92.60;;;2.83;99.54;98728.06;4943152;28;20773;-70
2023/11/18 01:06:38;;;;;;;15.23;11.53;;;3.60;92.30;;;3.02;99.09;98726.28;4946134;28;20466;-70
2023/11/18 01:09:06;;;;;;;14.33;10.50;;;3.70;93.10;;;2.90;97.57;98720.31;4949600;29;20459;-70
2023/11/18 01:11:33;;;;;;;11.80;9.63;;;3.80;92.30;;;2.70;99.07;98722.22;4950646;28;20460;-70
2023/11/18 01:14:01;;;;;;;13.17;9.60;;;3.80;91.50;;;2.36;100.00;98728.13;4948286;28;20954;-71
2023/11/18 01:16:29;;;;;;;10.20;8.87;;;3.60;91.30;;;2.24;100.00;98733.63;4955249;28;20456;-70
2023/11/18 01:18:58;;;;;;;11.47;10.23;;;3.40;91.60;;;2.08;100.00;98736.06;4950304;29;20527;-70
2023/11/18 01:21:25;;;;;;;13.43;10.37;;;3.20;92.10;;;1.87;100.00;98728.22;4949851;28;20573;-69
2023/11/18 01:23:52;;;;;;;15.17;10.43;;;3.10;92.40;;;1.92;100.00;98731.28;4948148;28;20457;-69
2023/11/18 01:26:19;;;;;;;13.33;10.73;;;3.00;93.10;;;1.79;100.00;98740.41;4948750;28;20456;-69
2023/11/18 01:28:46;;;;;;;15.57;11.47;;;2.90;92.80;;;1.69;100.00;98756.41;4948034;29;20514;-69
2023/11/18 01:31:13;;;;;;;12.00;10.27;;;2.80;93.20;;;1.69;100.00;98750.25;4950258;28;20459;-70
2023/11/18 01:33:42;;;;;;;13.97;11.00;;;2.80;93.50;;;1.55;100.00;98747.03;4949061;29;20535;-71
2023/11/18 01:36:10;;;;;;;13.63;11.17;;;2.70;93.30;;;1.49;100.00;98728.09;4942836;28;20565;-71
2023/11/18 01:38:38;;;;;;;15.57;11.00;;;2.70;93.80;;;1.37;100.00;98727.41;4943039;28;20475;-69
2023/11/18 01:41:06;;;;;;;14.47;11.20;;;2.60;94.20;;;1.67;100.00;98750.38;4948707;28;20465;-69
2023/11/18 01:43:34;;;;;;;12.27;10.37;;;2.70;95.40;;;1.57;100.00;98751.38;4949118;29;20463;-70
2023/11/18 01:46:04;;;;;;;14.27;10.70;;;2.70;95.20;;;1.62;100.00;98755.31;4959822;28;20967;-69
2023/11/18 01:48:33;;;;;;;14.23;10.40;;;2.70;95.60;;;1.72;100.00;98751.78;4950537;28;20456;-69
2023/11/18 01:51:06;;;;;;;13.40;10.97;;;2.80;96.10;;;1.74;100.00;98764.00;4947427;28;20455;-69
2023/11/18 01:53:38;;;;;;;12.67;10.40;;;2.90;96.10;;;1.85;100.00;98752.34;4944465;28;20478;-69
2023/11/18 01:56:08;;;;;;;15.37;11.67;;;2.90;96.30;;;1.99;100.00;98756.41;4945856;28;20571;-69
2023/11/18 01:58:37;;;;;;;14.23;10.63;;;3.10;96.30;;;1.90;100.00;98750.09;4946185;28;20480;-68
2023/11/18 02:01:08;;;;;;;17.37;10.97;;;3.00;95.60;;;1.78;100.00;98720.09;4946442;28;20830;-69
2023/11/18 02:03:35;;;;;;;13.53;10.53;;;3.10;95.80;;;1.95;100.00;98750.50;4948927;28;20456;-70
2023/11/18 02:06:05;;;;;;;13.77;10.93;;;3.10;95.40;;;1.79;100.00;98764.41;4946004;28;20468;-70
2023/11/18 02:08:35;;;;;;;14.27;10.90;;;3.00;94.70;;;1.94;100.00;98748.84;4944608;28;20547;-69
2023/11/18 02:11:12;;;;;;;13.10;10.53;;;3.10;95.00;;;2.07;100.00;98753.03;4947364;28;20555;-69
2023/11/18 02:13:46;;;;;;;19.70;12.23;;;3.20;94.70;;;1.65;100.00;98685.75;4948316;28;20547;-69
2023/11/18 02:16:14;;;;;;;15.03;13.17;;;3.20;93.80;;;2.09;100.00;98759.06;4945064;28;20953;-68
2023/11/18 02:18:44;;;;;;;14.77;12.07;;;3.20;93.40;;;1.87;100.00;98744.22;4952403;28;20534;-70
2023/11/18 02:21:14;;;;;;;11.80;10.57;;;3.20;93.20;;;1.97;100.00;98767.19;4950875;28;20550;-69
2023/11/18 02:23:44;;;;;;;14.57;12.30;;;3.10;93.30;;;2.08;100.00;98752.88;4949904;28;20471;-71
2023/11/18 02:26:21;;;;;;;19.87;12.13;;;3.20;93.30;;;2.26;100.00;98762.78;4963977;28;20456;-68
2023/11/18 02:28:50;;;;;;;16.10;11.07;;;3.20;93.10;;;2.16;100.00;98752.16;4948339;28;20469;-71
2023/11/18 02:31:24;;;;;;;12.13;10.83;;;3.10;92.70;;;1.93;100.00;98767.63;4947447;29;21101;-70
2023/11/18 02:34:03;;;;;;;11.53;10.43;;;3.10;93.00;;;1.87;100.00;98770.88;4939531;28;20482;-70
2023/11/18 02:36:38;;;;;;;15.93;10.83;;;3.10;92.60;;;1.82;100.00;98768.63;4938852;28;20820;-69
2023/11/18 02:39:10;;;;;;;14.23;12.47;;;3.00;92.70;;;1.82;100.00;98755.28;4949432;29;20551;-70
2023/11/18 02:41:41;;;;;;;12.57;10.33;;;3.00;92.80;;;1.85;100.00;98760.34;4946367;28;20871;-70
2023/11/18 02:44:10;;;;;;;12.40;10.97;;;3.00;92.60;;;1.98;100.00;98750.22;4949114;28;20459;-69
2023/11/18 02:46:38;;;;;;;15.03;11.23;;;3.00;92.30;;;1.68;100.00;98765.38;4947436;28;20452;-69
2023/11/18 02:49:05;;;;;;;13.67;11.70;;;2.90;92.30;;;1.65;100.00;98767.47;4942276;28;20460;-68
2023/11/18 02:51:38;;;;;;;15.23;12.10;;;2.80;92.00;;;0.91;100.00;98666.69;4948749;28;20455;-68
2023/11/18 02:54:10;;;;;;;13.70;11.20;;;2.80;92.20;;;1.48;100.00;98771.69;4947849;28;20523;-69
2023/11/18 02:56:38;;;;;;;14.93;10.93;;;2.70;92.10;;;1.38;100.00;98772.50;4947329;29;20448;-69
2023/11/18 02:59:06;;;;;;;14.57;10.60;;;2.60;91.90;;;1.29;100.00;98784.00;4949301;28;20470;-69
2023/11/18 03:01:33;;;;;;;13.73;11.53;;;2.50;92.00;;;1.17;100.00;98782.44;4946987;28;20601;-69
2023/11/18 03:04:00;;;;;;;21.13;11.93;;;2.40;92.10;;;0.91;100.00;98767.78;4946227;28;20685;-70
2023/11/18 03:06:27;;;;;;;11.40;10.30;;;2.30;92.40;;;0.91;100.00;98782.91;4959244;28;20455;-69
2023/11/18 03:08:55;;;;;;;15.60;10.80;;;2.20;92.90;;;0.87;100.00;98782.31;4946024;28;20491;-69
2023/11/18 03:11:22;;;;;;;14.90;10.30;;;2.10;92.90;;;0.86;100.00;98780.66;4948331;28;20460;-71
2023/11/18 03:13:53;;;;;;;14.23;10.43;;;2.10;93.00;;;0.85;100.00;98781.63;4948724;28;21024;-71
2023/11/18 03:16:20;;;;;;;16.23;10.67;;;2.10;93.10;;;0.72;100.00;98759.72;4944218;28;20461;-71
2023/11/18 03:18:48;;;;;;;17.13;11.20;;;2.10;93.30;;;0.81;100.00;98781.03;4952446;28;20454;-69
2023/11/18 03:21:15;;;;;;;13.23;10.90;;;2.00;93.30;;;0.76;100.00;98785.94;4953787;28;20470;-70
2023/11/18 03:23:44;;;;;;;13.60;10.50;;;2.00;93.20;;;0.79;100.00;98777.69;4952595;28;20460;-69
2023/11/18 03:26:12;;;;;;;12.80;10.60;;;2.00;93.30;;;0.77;100.00;98784.94;4951006;29;20472;-68
2023/11/18 03:28:39;;;;;;;14.30;11.17;;;2.00;93.00;;;0.77;100.00;98781.47;4951677;28;20473;-69
2023/11/18 03:31:09;;;;;;;15.83;10.53;;;2.10;92.80;;;0.79;100.00;98787.50;4952850;28;20454;-69
2023/11/18 03:33:36;;;;;;;11.23;10.07;;;2.00;92.70;;;0.71;100.00;98788.16;4952053;28;20459;-69
2023/11/18 03:36:04;;;;;;;14.57;10.40;;;2.00;92.70;;;0.62;100.00;98794.25;4950930;28;20553;-69
2023/11/18 03:38:31;;;;;;;14.70;10.20;;;1.90;92.70;;;0.67;100.00;98792.91;4951793;28;20530;-69
2023/11/18 03:40:59;;;;;;;12.33;10.50;;;1.90;93.10;;;0.60;100.00;98785.59;4944049;28;20468;-69
2023/11/18 03:43:26;;;;;;;14.37;10.80;;;1.90;93.10;;;0.71;100.00;98790.81;4950247;28;20458;-69
2023/11/18 03:45:56;;;;;;;13.37;10.40;;;1.90;93.40;;;0.75;100.00;98778.94;4951622;28;21060;-68
2023/11/18 03:48:25;;;;;;;10.87;9.73;;;2.00;93.10;;;0.78;100.00;98793.78;4953660;28;20919;-68
2023/11/18 03:50:53;;;;;;;13.07;10.53;;;2.10;92.30;;;0.84;100.00;98799.41;4947734;28;20477;-69
2023/11/18 03:53:20;;;;;;;12.47;9.90;;;2.10;92.00;;;0.80;100.00;98795.31;4953084;28;21164;-68
2023/11/18 03:55:48;;;;;;;11.90;9.63;;;2.10;91.50;;;0.77;100.00;98792.94;4949860;28;20494;-68
2023/11/18 03:58:15;;;;;;;12.93;10.63;;;2.10;91.40;;;0.81;100.00;98798.84;4946641;28;20462;-69
2023/11/18 04:00:43;;;;;;;15.00;10.50;;;2.10;91.30;;;0.77;100.00;98798.25;4963316;28;20983;-71
2023/11/18 04:03:10;;;;;;;14.47;10.97;;;2.10;91.10;;;0.78;100.00;98805.25;4955654;28;20466;-70
2023/11/18 04:05:39;;;;;;;12.20;10.83;;;2.10;91.40;;;0.74;100.00;98795.88;4949492;28;20459;-69
2023/11/18 04:08:06;;;;;;;15.93;10.20;;;2.10;91.40;;;0.61;100.00;98792.59;4950505;28;20477;-70
2023/11/18 04:10:34;;;;;;;14.67;9.67;;;2.00;91.50;;;0.53;100.00;98807.41;4953708;28;20463;-69
2023/11/18 04:13:01;;;;;;;13.80;9.90;;;1.90;91.60;;;0.59;100.00;98810.50;4944001;28;20450;-70
2023/11/18 04:15:28;;;;;;;11.20;9.77;;;1.90;92.20;;;0.67;100.00;98815.97;4945795;28;20496;-68
2023/11/18 04:17:56;;;;;;;11.83;10.53;;;1.90;92.10;;;0.57;100.00;98802.63;4962957;28;20459;-68
2023/11/18 04:20:23;;;;;;;12.93;10.93;;;1.90;92.10;;;0.60;100.00;98804.19;4940893;28;21169;-69
2023/11/18 04:22:51;;;;;;;15.17;10.60;;;1.90;92.90;;;0.51;100.00;98769.44;4946653;28;20453;-70
2023/11/18 04:25:19;;;;;;;11.70;10.50;;;2.00;92.30;;;0.57;100.00;98805.28;4952125;28;20460;-69
2023/11/18 04:27:47;;;;;;;15.90;10.77;;;1.90;91.50;;;0.48;100.00;98804.28;4948925;28;20447;-68
2023/11/18 04:30:14;;;;;;;10.73;8.90;;;1.90;91.50;;;0.76;100.00;98809.88;4945891;28;20462;-70
2023/11/18 04:32:42;;;;;;;14.20;10.40;;;1.80;91.50;;;0.41;100.00;98792.50;4947876;28;20540;-70
2023/11/18 04:35:11;;;;;;;10.13;9.17;;;1.80;91.60;;;0.42;100.00;98804.81;4963999;28;20488;-70
2023/11/18 04:37:42;;;;;;;10.67;9.60;;;1.80;91.40;;;-0.07;100.00;98736.25;4950702;29;20583;-69
2023/11/18 04:40:12;;;;;;;11.80;9.17;;;1.80;91.40;;;0.26;100.00;98810.56;4962344;28;20445;-69
2023/11/18 04:42:40;;;;;;;9.90;8.67;;;1.60;91.30;;;0.33;100.00;98813.56;4943501;28;20472;-70
2023/11/18 04:45:09;;;;;;;11.20;8.83;;;1.60;91.60;;;0.24;100.00;98812.53;4946510;28;20467;-68
2023/11/18 04:47:38;;;;;;;10.17;8.33;;;1.60;91.30;;;0.12;100.00;98812.56;4966757;28;20454;-69
2023/11/18 04:50:08;;;;;;;11.27;8.50;;;1.50;91.30;;;0.17;100.00;98806.06;4948437;28;20859;-69
2023/11/18 04:52:36;;;;;;;9.47;8.33;;;1.50;91.70;;;0.09;100.00;98807.53;4949288;28;20463;-70
2023/11/18 04:55:06;;;;;;;11.07;9.07;;;1.40;91.70;;;0.03;100.00;98802.75;4944880;29;20479;-69
2023/11/18 04:57:35;;;;;;;11.43;8.10;;;1.40;92.00;;;-0.04;100.00;98799.75;4948324;28;20778;-69
2023/11/18 05:00:10;;;;;;;12.03;8.70;;;1.30;92.20;;;-0.24;100.00;98776.66;4946542;29;21169;-69
2023/11/18 05:02:37;;;;;;;13.70;9.20;;;1.20;92.60;;;-0.16;100.00;98798.13;4947160;28;20461;-69
2023/11/18 05:05:06;;;;;;;9.70;8.57;;;1.20;92.90;;;-0.32;100.00;98764.84;4960907;28;20491;-70
2023/11/18 05:07:34;;;;;;;9.40;8.40;;;1.10;93.40;;;-0.29;100.00;98775.22;4958720;28;20493;-69
2023/11/18 05:10:02;;;;;;;10.00;8.70;;;1.10;93.70;;;-0.25;100.00;98783.78;4960481;28;20493;-69
2023/11/18 05:12:30;;;;;;;9.37;7.73;;;1.10;94.00;;;-0.29;100.00;98763.78;4946897;28;20469;-69
2023/11/18 05:14:58;;;;;;;10.87;9.07;;;1.10;94.90;;;-0.11;100.00;98787.09;4946335;28;20482;-68
2023/11/18 05:17:26;;;;;;;12.20;8.67;;;1.20;95.70;;;-0.11;100.00;98779.97;4945673;28;20510;-69
2023/11/18 05:19:53;;;;;;;12.73;9.67;;;1.20;95.50;;;-0.01;100.00;98786.19;4950167;28;20487;-70
2023/11/18 05:22:22;;;;;;;12.57;9.50;;;1.30;95.70;;;0.05;100.00;98791.97;4949927;28;20795;-69
2023/11/18 05:24:49;;;;;;;14.00;9.70;;;1.30;94.80;;;0.04;100.00;98796.44;4946271;29;20447;-69
2023/11/18 05:27:17;;;;;;;10.63;9.00;;;1.30;94.10;;;0.19;100.00;98793.47;4946048;28;20441;-69
2023/11/18 05:29:47;;;;;;;12.17;9.17;;;1.40;94.10;;;0.16;100.00;98793.75;4940502;28;20453;-69
2023/11/18 05:32:16;;;;;;;10.77;8.53;;;1.50;93.60;;;0.25;100.00;98796.47;4957776;28;20478;-69
2023/11/18 05:34:43;;;;;;;14.67;9.33;;;1.50;93.60;;;0.08;100.00;98813.81;4947869;28;20510;-72
2023/11/18 05:37:10;;;;;;;13.90;8.90;;;1.50;93.10;;;0.13;100.00;98800.97;4947034;28;20466;-70
2023/11/18 05:39:42;;;;;;;11.50;8.73;;;1.50;93.30;;;0.10;100.00;98782.63;4945826;28;20462;-70
2023/11/18 05:42:10;;;;;;;10.90;8.87;;;1.50;93.10;;;0.18;100.00;98805.09;4949439;28;20563;-69
2023/11/18 05:44:39;;;;;;;11.50;9.40;;;1.50;92.60;;;0.13;100.00;98806.28;4948457;29;20561;-69
2023/11/18 05:47:07;;;;;;;12.00;9.17;;;1.50;92.30;;;0.24;100.00;98813.38;4947451;29;20809;-70
2023/11/18 05:49:35;;;;;;;11.40;9.03;;;1.50;92.30;;;0.20;100.00;98808.44;4950993;28;20460;-71
2023/11/18 05:52:02;;;;;;;8.67;7.77;;;1.50;91.80;;;0.14;100.00;98812.47;4947100;28;20505;-69
2023/11/18 05:54:30;;;;;;;11.20;9.13;;;1.50;91.70;;;0.18;100.00;98819.19;4948417;28;20473;-69
2023/11/18 05:56:59;;;;;;;12.37;10.03;;;1.50;91.90;;;0.12;100.00;98814.41;4949347;28;20458;-70
2023/11/18 05:59:26;;;;;;;11.30;9.40;;;1.50;91.70;;;0.04;100.00;98812.41;4948277;28;20497;-68
2023/11/18 06:01:56;;;;;;;12.37;9.63;;;1.40;91.40;;;-0.08;100.00;98813.41;4948923;28;20530;-69
2023/11/18 06:04:23;;;;;;;9.20;7.87;;;1.40;91.50;;;-0.03;100.00;98819.19;4949806;28;20465;-70
2023/11/18 06:06:52;;;;;;;9.80;8.30;;;1.30;91.70;;;-0.04;100.00;98815.69;4949998;28;20450;-70
2023/11/18 06:09:21;;;;;;;11.53;8.43;;;1.30;92.10;;;0.01;100.00;98814.47;4951484;28;20448;-69
2023/11/18 06:11:49;;;;;;;10.90;9.30;;;1.40;92.20;;;0.09;100.00;98815.50;4949459;28;20456;-69
2023/11/18 06:14:17;;;;;;;9.50;8.50;;;1.40;92.20;;;0.10;100.00;98834.97;4948077;28;20454;-71
2023/11/18 06:16:44;;;;;;;10.50;9.40;;;1.50;91.90;;;0.01;100.00;98823.28;4945056;28;20526;-71
2023/11/18 06:19:12;;;;;;;12.07;9.70;;;1.40;91.60;;;0.05;100.00;98835.34;4953189;28;20454;-68
2023/11/18 06:21:40;;;;;;;10.47;9.37;;;1.40;91.80;;;-0.04;100.00;98799.75;4948905;28;20475;-69
2023/11/18 06:24:11;;;;;;;11.87;9.30;;;1.40;91.90;;;-0.41;100.00;98743.53;4949452;28;20458;-69
2023/11/18 06:26:38;;;;;;;12.63;8.40;;;1.40;91.90;;;0.10;100.00;98821.66;4948922;28;20467;-68
2023/11/18 06:29:06;;;;;;;11.57;8.60;;;1.40;92.00;;;0.12;100.00;98825.03;4939624;28;20460;-68
2023/11/18 06:31:33;;;;;;;11.40;9.20;;;1.50;92.10;;;0.02;100.00;98818.81;4944411;28;20490;-68
2023/11/18 06:34:02;;;;;;;10.50;8.40;;;1.40;92.10;;;-0.05;100.00;98827.28;4943617;28;20463;-68
2023/11/18 06:36:30;;;;;;;13.10;9.57;;;1.40;92.20;;;-0.05;100.00;98829.94;4953868;28;20479;-68
2023/11/18 06:38:58;;;;;;;13.07;10.10;;;1.30;92.60;;;-0.09;100.00;98823.19;4949614;28;20508;-68
2023/11/18 06:41:33;;;;;;;12.87;9.90;;;1.30;92.80;;;0.12;100.00;98806.44;4947807;28;20506;-68
2023/11/18 06:44:08;;;;;;;16.07;9.70;;;1.30;93.30;;;0.07;100.00;98829.88;4944704;28;20467;-68
2023/11/18 06:46:39;;;;;;;13.53;10.53;;;1.30;93.10;;;0.00;100.00;98816.28;4945859;28;20468;-69
2023/11/18 06:49:07;;;;;;;12.83;10.53;;;1.30;93.20;;;-0.10;100.00;98818.84;4945281;28;20457;-70
2023/11/18 06:51:37;;;;;;;11.70;9.40;;;1.30;93.70;;;-0.01;100.00;98814.56;4942798;28;20948;-70
2023/11/18 06:54:08;;;;;;;12.53;9.90;;;1.30;94.30;;;-0.09;100.00;98811.72;4949479;28;20470;-70
2023/11/18 06:56:38;;;;;;;13.83;10.80;;;1.20;94.00;;;-0.27;100.00;98817.59;4945148;28;20994;-71
2023/11/18 06:59:06;;;;;;;15.43;11.27;;;1.20;94.10;;;-0.31;100.00;98819.66;4945398;28;20536;-70
2023/11/18 07:01:33;;;;;;;11.00;9.80;;;1.10;94.30;;;-0.39;100.00;98806.16;4945121;28;20560;-70
2023/11/18 07:04:01;;;;;;;15.90;11.40;;;1.00;94.90;;;-0.42;100.00;98817.03;4943682;28;20462;-74
2023/11/18 07:06:28;;;;;;;14.90;11.13;;;1.00;95.40;;;-0.40;100.00;98812.44;4943613;28;20467;-71
2023/11/18 07:09:00;;;;;;;15.73;12.00;;;1.00;96.20;;;-0.42;100.00;98819.69;4942033;28;20458;-69
2023/11/18 07:11:27;;;;;;;14.50;10.90;;;1.00;96.50;;;-0.41;100.00;98823.19;4946230;28;20541;-70
2023/11/18 07:13:56;;;;;;;14.37;10.30;;;1.00;96.30;;;-0.41;100.00;98824.03;4946847;28;20850;-69
2023/11/18 07:16:25;;;;;;;15.60;11.30;;;1.00;97.00;;;-0.38;100.00;98834.41;4941998;28;20540;-70
2023/11/18 07:18:52;;;;;;;24.27;12.40;;;1.00;97.00;;;-0.25;100.00;98828.09;4944111;28;20463;-71
2023/11/18 07:21:20;;;;;;;15.47;10.90;;;1.20;98.50;;;-0.15;100.00;98847.63;4947371;28;20454;-71
2023/11/18 07:23:47;;;;;;;18.50;11.63;;;1.20;97.60;;;-0.14;100.00;98846.66;4942020;28;20457;-74
2023/11/18 07:26:14;;;;;;;20.43;11.07;;;1.20;96.50;;;-0.12;100.00;98815.47;4944742;28;20528;-73
2023/11/18 07:28:43;;;;;;;22.80;10.83;;;1.40;97.00;;;0.14;100.00;98863.78;4946499;28;20460;-76
2023/11/18 07:31:14;;;;;;;13.90;10.60;;;1.40;96.30;;;0.22;100.00;98857.81;4940777;28;20558;-73
2023/11/18 07:33:44;;;;;;;16.10;10.47;;;1.40;95.40;;;0.05;100.00;98853.09;4936769;28;20952;-73
2023/11/18 07:36:11;;;;;;;18.57;11.20;;;1.40;94.90;;;0.02;100.00;98864.84;4939127;28;20468;-72
2023/11/18 07:38:39;;;;;;;16.20;10.60;;;1.40;95.10;;;-0.32;100.00;98812.66;4944379;28;20525;-73
2023/11/18 07:41:08;;;;;;;15.23;10.97;;;1.40;95.00;;;0.12;100.00;98862.25;4939398;29;20474;-72
2023/11/18 07:43:36;;;;;;;15.87;10.73;;;1.50;95.20;;;0.63;100.00;98855.31;4946664;28;20458;-71
2023/11/18 07:46:07;;;;;;;15.67;10.83;;;1.80;96.50;;;0.60;100.00;98866.19;4944213;28;20647;-74
2023/11/18 07:48:36;;;;;;;16.17;10.67;;;1.90;95.00;;;0.76;100.00;98863.09;4942007;28;20847;-72
2023/11/18 07:51:04;;;;;;;16.60;10.80;;;2.00;93.90;;;0.78;100.00;98861.13;4942236;28;20450;-73
2023/11/18 07:53:31;;;;;;;15.93;11.47;;;2.10;92.80;;;0.81;100.00;98849.38;4948044;28;20521;-73
2023/11/18 07:55:58;;;;;;;15.70;10.00;;;2.20;92.30;;;0.81;100.00;98858.19;4945857;28;20480;-72
2023/11/18 07:58:27;;;;;;;15.17;10.40;;;2.20;92.20;;;1.04;100.00;98855.38;4944460;28;20907;-71
2023/11/18 08:00:54;;;;;;;15.70;10.77;;;2.30;92.30;;;1.58;100.00;98863.09;4942504;29;20480;-71
2023/11/18 08:03:22;;;;;;;16.83;10.63;;;2.60;92.60;;;1.67;99.79;98846.31;4946358;28;20471;-71
2023/11/18 08:05:52;;;;;;;14.37;10.30;;;2.80;91.90;;;1.91;98.92;98863.72;4941911;28;20585;-72
2023/11/18 08:08:19;;;;;;;12.70;8.77;;;3.00;91.40;;;2.11;97.38;98869.88;4948278;28;20467;-71
2023/11/18 08:10:48;;;;;;;12.20;9.27;;;3.20;90.30;;;2.13;97.38;98864.44;4951308;28;20465;-72
2023/11/18 08:13:16;;;;;;;10.83;8.17;;;3.20;89.50;;;2.19;96.11;98869.19;4947577;29;20457;-71
2023/11/18 08:15:45;;;;;;;12.13;8.90;;;3.30;88.80;;;1.78;97.60;98865.81;4947723;28;20488;-71
2023/11/18 08:18:12;;;;;;;13.07;9.60;;;3.20;87.80;;;2.05;97.15;98888.28;4962834;28;20623;-74
2023/11/18 08:20:41;;;;;;;12.77;9.10;;;3.30;89.80;;;2.19;96.26;98889.69;4947233;28;20455;-75
2023/11/18 08:23:10;;;;;;;12.23;9.50;;;3.40;89.40;;;2.66;96.34;98889.78;4949841;28;20454;-73
2023/11/18 08:25:37;;;;;;;13.40;9.10;;;3.60;90.20;;;2.38;94.89;98872.84;4946888;28;20929;-72
2023/11/18 08:28:06;;;;;;;12.47;9.83;;;3.70;87.90;;;2.25;96.60;98857.97;4946062;29;20512;-73
2023/11/18 08:30:34;;;;;;;13.27;9.87;;;3.60;87.60;;;2.01;97.19;98861.06;4961545;28;20486;-72
2023/11/18 08:33:03;;;;;;;14.87;10.50;;;3.50;88.00;;;1.91;98.50;98866.41;4941014;28;20565;-71
2023/11/18 08:35:31;;;;;;;13.30;9.57;;;3.30;88.30;;;2.55;97.86;98858.78;4949647;28;20480;-73
2023/11/18 08:37:59;;;;;;;12.80;9.43;;;3.60;90.40;;;2.81;95.24;98860.84;4948716;28;21007;-74
2023/11/18 08:40:27;;;;;;;13.50;9.40;;;3.90;89.10;;;2.98;92.87;98850.38;4963771;28;20469;-72
2023/11/18 08:42:56;;;;;;;14.37;9.67;;;3.90;87.20;;;2.59;94.55;98855.81;4963087;28;20523;-74
2023/11/18 08:45:27;;;;;;;14.20;10.60;;;3.90;86.70;;;2.72;94.81;98864.38;4945466;28;20457;-77
2023/11/18 08:47:55;;;;;;;13.27;8.87;;;3.90;86.80;;;2.66;95.15;98870.28;4941793;28;20540;-75
2023/11/18 08:50:24;;;;;;;17.43;10.43;;;3.90;86.90;;;2.52;94.56;98859.06;4947704;28;20452;-74
2023/11/18 08:52:57;;;;;;;12.73;8.63;;;3.90;86.50;;;2.82;94.81;98867.00;4949598;28;20572;-75
2023/11/18 08:55:38;;;;;;;19.70;10.50;;;4.00;87.00;;;2.79;94.32;98865.44;4945312;28;20471;-73
2023/11/18 08:58:15;;;;;;;14.30;10.47;;;4.00;86.30;;;2.57;95.65;98865.78;4959434;28;20462;-71
2023/11/18 09:00:47;;;;;;;13.83;10.80;;;4.00;86.80;;;2.81;95.15;98871.50;4949977;28;20469;-72
2023/11/18 09:03:24;;;;;;;13.03;9.60;;;4.00;87.60;;;2.72;95.63;98869.69;4943786;28;20458;-76
2023/11/18 09:05:59;;;;;;;12.10;9.90;;;4.00;87.50;;;2.96;95.15;98868.38;4947218;28;20466;-72
2023/11/18 09:08:29;;;;;;;12.33;10.10;;;4.10;88.00;;;3.34;94.19;98866.53;4951681;28;20483;-69
2023/11/18 09:10:58;;;;;;;19.10;11.93;;;4.30;88.30;;;3.39;93.10;98861.56;4949054;29;20457;-69
2023/11/18 09:13:28;;;;;;;14.60;9.73;;;4.50;87.10;;;3.83;91.57;98868.06;4945928;28;20941;-71
2023/11/18 09:15:57;;;;;;;16.60;10.90;;;4.70;86.70;;;3.86;90.79;98859.75;4946525;28;20541;-69
2023/11/18 09:18:25;;;;;;;15.70;10.50;;;4.80;85.90;;;3.71;90.80;98859.44;4951071;28;20461;-72
2023/11/18 09:20:54;;;;;;;15.90;11.20;;;4.90;85.00;;;3.83;90.57;98862.72;4950285;29;20448;-73
2023/11/18 09:23:25;;;;;;;14.20;10.63;;;5.00;85.00;;;3.69;91.42;98864.91;4946905;28;21486;-72
2023/11/18 09:25:53;;;;;;;16.27;10.97;;;5.00;84.80;;;4.05;91.17;98876.66;4945258;28;20540;-72
2023/11/18 09:28:25;;;;;;;12.90;10.60;;;5.00;85.30;;;4.48;88.98;98869.69;4947102;28;20491;-74
2023/11/18 09:30:57;;;;;;;15.20;10.70;;;5.20;85.40;;;4.25;88.80;98855.94;4948432;28;20524;-73
2023/11/18 09:33:28;;;;;;;16.33;10.90;;;5.30;84.90;;;4.02;88.94;98820.78;4949971;28;20469;-72
2023/11/18 09:35:59;;;;;;;13.40;10.90;;;5.40;84.70;;;4.18;89.54;98842.34;4942867;28;20473;-77
2023/11/18 09:38:30;;;;;;;15.17;10.70;;;5.30;84.80;;;3.89;90.43;98848.75;4964969;28;20570;-79
2023/11/18 09:41:02;;;;;;;16.40;11.40;;;5.20;84.40;;;3.87;91.75;98856.09;4947008;28;20989;-73
2023/11/18 09:43:36;;;;;;;17.03;11.53;;;5.20;84.80;;;3.68;93.34;98849.03;4944856;28;20464;-75
2023/11/18 09:46:12;;;;;;;12.77;10.40;;;5.00;85.40;;;3.73;92.77;98840.59;4943767;28;20549;-71
2023/11/18 09:48:52;;;;;;;18.47;11.90;;;5.00;85.90;;;3.64;93.97;98850.31;4943411;28;20472;-71
2023/11/18 09:51:23;;;;;;;18.77;11.00;;;4.90;86.30;;;3.82;94.07;98858.38;4947397;28;20904;-73
2023/11/18 09:53:53;;;;;;;18.10;11.40;;;5.00;86.80;;;4.06;93.26;98851.59;4946595;28;20555;-76
2023/11/18 09:56:37;;;;;;;14.90;10.87;;;5.20;86.90;;;4.31;92.74;98841.94;4943454;28;21571;-75
2023/11/18 09:59:19;;;;;;;14.90;11.40;;;5.30;86.80;;;4.47;91.88;98822.47;4942502;28;20469;-74
2023/11/18 10:01:53;;;;;;;17.17;12.00;;;5.60;86.60;;;5.27;87.89;98844.72;4945146;28;20477;-75
2023/11/18 10:04:21;;;;;;;15.50;12.10;;;6.10;85.90;;;4.71;87.17;98783.50;4959774;28;20460;-74
2023/11/18 10:06:49;;;;;;;16.63;12.40;;;6.30;84.20;;;4.89;89.73;98833.47;4961816;28;20437;-74
2023/11/18 10:09:19;;;;;;;16.23;12.60;;;6.20;84.60;;;5.16;89.48;98836.94;4981742;28;20512;-74
2023/11/18 10:11:48;;;;;;;16.80;11.97;;;6.20;84.90;;;4.94;89.27;98831.97;4958604;28;21018;-74
2023/11/18 10:14:17;;;;;;;18.77;13.07;;;6.20;84.60;;;4.95;90.95;98828.31;4950350;28;20465;-71
2023/11/18 10:16:46;;;;;;;19.03;13.07;;;6.20;85.00;;;5.13;89.60;98818.53;4951577;28;20489;-74
2023/11/18 10:19:14;;;;;;;16.90;12.10;;;6.20;85.20;;;5.10;90.15;98815.16;4948543;28;20462;-75
2023/11/18 10:21:42;;;;;;;14.80;11.73;;;6.30;85.10;;;5.16;89.70;98823.56;4949925;28;20454;-75
2023/11/18 10:24:14;;;;;;;17.80;12.97;;;6.30;84.90;;;5.32;89.81;98830.84;4949599;28;21001;-73